createdAt,value
2019-04-05T00:00:09.794Z,19.53
2019-04-05T00:02:14.028Z,21.93
2019-04-05T00:04:17.904Z,21.53
2019-04-05T00:06:21.768Z,21.87
2019-04-05T00:08:25.705Z,21.93
2019-04-05T00:10:29.571Z,21.40
2019-04-05T00:12:33.434Z,25.70
2019-04-05T00:14:37.323Z,18.90
2019-04-05T00:16:41.187Z,23.90
2019-04-05T00:18:45.065Z,20.90
2019-04-05T00:20:48.984Z,21.20
2019-04-05T00:22:52.859Z,22.70
2019-04-05T00:24:56.721Z,23.77
2019-04-05T00:27:00.633Z,22.50
2019-04-05T00:29:04.497Z,22.50
2019-04-05T00:31:08.414Z,20.20
2019-04-05T00:33:12.268Z,22.43
2019-04-05T00:35:16.190Z,21.07
2019-04-05T00:37:20.097Z,21.20
2019-04-05T00:39:23.973Z,22.27
2019-04-05T00:41:27.942Z,23.87
2019-04-05T00:43:31.792Z,21.27
2019-04-05T00:45:35.656Z,19.53
2019-04-05T00:47:39.564Z,22.83
2019-04-05T00:49:43.440Z,22.17
2019-04-05T00:51:47.353Z,21.43
2019-04-05T00:53:51.252Z,24.27
2019-04-05T00:55:55.149Z,23.70
2019-04-05T00:57:59.062Z,23.53
2019-04-05T01:00:02.926Z,22.83
2019-04-05T01:02:06.896Z,21.43
2019-04-05T01:04:10.800Z,24.83
2019-04-05T01:06:14.664Z,22.67
2019-04-05T01:08:18.586Z,24.73
2019-04-05T01:10:23.076Z,25.77
2019-04-05T01:12:27.770Z,24.37
2019-04-05T01:14:32.288Z,21.97
2019-04-05T01:16:36.159Z,21.67
2019-04-05T01:18:40.033Z,25.57
2019-04-05T01:20:46.556Z,23.93
2019-04-05T01:22:50.404Z,22.60
2019-04-05T01:24:54.293Z,26.00
2019-04-05T01:27:00.227Z,25.40
2019-04-05T01:29:04.104Z,24.53
2019-04-05T01:31:08.009Z,25.63
2019-04-05T01:33:11.877Z,28.30
2019-04-05T01:35:16.039Z,23.70
2019-04-05T01:37:19.961Z,22.30
2019-04-05T01:39:25.845Z,27.23
2019-04-05T01:41:30.855Z,27.57
2019-04-05T01:43:34.730Z,27.03
2019-04-05T01:45:53.454Z,25.60
2019-04-05T01:47:51.593Z,25.57
2019-04-05T01:49:55.456Z,25.33
2019-04-05T01:51:59.384Z,25.37
2019-04-05T01:54:03.248Z,25.50
2019-04-05T01:56:07.163Z,27.97
2019-04-05T01:58:11.022Z,22.63
2019-04-05T02:00:15.569Z,23.63
2019-04-05T02:02:22.484Z,24.03
2019-04-05T02:04:26.771Z,25.67
2019-04-05T02:06:30.906Z,30.13
2019-04-05T02:08:36.709Z,23.60
2019-04-05T02:10:40.592Z,24.97
2019-04-05T02:12:44.617Z,26.03
2019-04-05T02:14:48.477Z,27.10
2019-04-05T02:16:53.861Z,28.57
2019-04-05T02:18:58.491Z,26.97
2019-04-05T02:21:02.369Z,25.67
2019-04-05T02:23:06.236Z,29.87
2019-04-05T02:25:10.136Z,26.93
2019-04-05T02:27:14.011Z,27.87
2019-04-05T02:29:21.271Z,25.73
2019-04-05T02:31:26.213Z,23.73
2019-04-05T02:33:30.076Z,26.40
2019-04-05T02:35:33.980Z,28.43
2019-04-05T02:37:37.950Z,23.37
2019-04-05T02:39:41.809Z,25.30
2019-04-05T02:41:46.323Z,26.70
2019-04-05T02:43:53.096Z,27.00
2019-04-05T02:45:57.739Z,22.73
2019-04-05T02:48:04.454Z,23.97
2019-04-05T02:50:08.927Z,23.20
2019-04-05T02:52:16.289Z,27.53
2019-04-05T02:54:20.263Z,25.10
2019-04-05T02:56:25.815Z,26.13
2019-04-05T02:58:30.689Z,25.43
2019-04-05T03:00:34.761Z,24.33
2019-04-05T03:02:40.091Z,24.00
2019-04-05T03:04:43.947Z,24.47
2019-04-05T03:06:49.373Z,28.50
2019-04-05T03:08:54.479Z,25.03
2019-04-05T03:11:06.742Z,24.23
2019-04-05T03:13:10.781Z,24.60
2019-04-05T03:15:17.472Z,25.23
2019-04-05T03:17:24.058Z,26.70
2019-04-05T03:19:31.220Z,29.27
2019-04-05T03:21:38.033Z,25.40
2019-04-05T03:23:44.755Z,22.60
2019-04-05T03:25:51.039Z,21.27
2019-04-05T03:27:54.930Z,22.07
2019-04-05T03:29:59.229Z,24.87
2019-04-05T03:32:03.825Z,21.23
2019-04-05T03:34:08.379Z,19.30
2019-04-05T03:36:15.077Z,26.50
2019-04-05T03:38:21.660Z,20.83
2019-04-05T03:40:25.930Z,21.63
2019-04-05T03:42:31.142Z,19.43
2019-04-05T03:44:36.187Z,21.83
2019-04-05T03:46:55.279Z,20.83
2019-04-05T03:48:46.757Z,20.40
2019-04-05T03:50:50.690Z,22.30
2019-04-05T03:52:54.553Z,21.47
2019-04-05T03:54:58.623Z,23.53
2019-04-05T03:57:05.682Z,23.77
2019-04-05T03:59:09.685Z,21.37
2019-04-05T04:01:13.814Z,24.13
2019-04-05T04:03:18.227Z,21.83
2019-04-05T04:05:22.316Z,22.87
2019-04-05T04:07:26.268Z,23.20
2019-04-05T04:09:30.145Z,23.43
2019-04-05T04:11:34.313Z,24.27
2019-04-05T04:13:39.007Z,22.47
2019-04-05T04:15:42.871Z,24.43
2019-04-05T04:17:46.961Z,22.63
2019-04-05T04:19:51.245Z,21.40
2019-04-05T04:22:15.699Z,23.43
2019-04-05T04:24:20.179Z,19.87
2019-04-05T04:26:24.041Z,24.50
2019-04-05T04:28:27.953Z,24.47
2019-04-05T04:30:32.833Z,23.30
2019-04-05T04:32:36.722Z,21.37
2019-04-05T04:34:40.625Z,20.30
2019-04-05T04:36:44.774Z,20.43
2019-04-05T04:38:49.678Z,22.53
2019-04-05T04:40:54.533Z,21.20
2019-04-05T04:42:58.639Z,22.30
2019-04-05T04:45:12.152Z,25.40
2019-04-05T04:47:09.484Z,22.50
2019-04-05T04:49:13.350Z,22.20
2019-04-05T04:51:18.420Z,22.80
2019-04-05T04:53:22.844Z,18.40
2019-04-05T04:55:27.148Z,22.53
2019-04-05T04:57:31.520Z,27.07
2019-04-05T04:59:35.729Z,22.87
2019-04-05T05:01:39.795Z,23.07
2019-04-05T05:03:43.688Z,24.67
2019-04-05T05:05:47.600Z,27.10
2019-04-05T05:07:51.764Z,22.97
2019-04-05T05:09:55.629Z,25.30
2019-04-05T05:11:59.535Z,25.20
2019-04-05T05:14:03.829Z,27.50
2019-04-05T05:16:07.858Z,26.07
2019-04-05T05:18:12.016Z,27.13
2019-04-05T05:20:15.884Z,23.50
2019-04-05T05:22:20.176Z,24.87
2019-04-05T05:24:24.402Z,23.00
2019-04-05T05:26:28.410Z,26.13
2019-04-05T05:28:32.845Z,24.57
2019-04-05T05:30:36.922Z,22.73
2019-04-05T05:32:40.908Z,23.67
2019-04-05T05:34:44.773Z,24.00
2019-04-05T05:36:49.169Z,22.90
2019-04-05T05:38:53.489Z,25.60
2019-04-05T05:40:57.380Z,22.77
2019-04-05T05:43:01.320Z,20.43
2019-04-05T05:45:08.715Z,24.57
2019-04-05T05:47:12.617Z,24.73
2019-04-05T05:49:16.539Z,22.03
2019-04-05T05:51:20.421Z,20.40
2019-04-05T05:53:24.370Z,25.57
2019-04-05T05:55:30.069Z,23.37
2019-04-05T05:57:33.819Z,24.43
2019-04-05T05:59:37.741Z,22.73
2019-04-05T06:01:41.622Z,22.20
2019-04-05T06:03:45.519Z,23.47
2019-04-05T06:05:49.437Z,22.97
2019-04-05T06:07:53.336Z,22.93
2019-04-05T06:09:57.268Z,22.13
2019-04-05T06:12:01.142Z,22.00
2019-04-05T06:14:05.051Z,23.50
2019-04-05T06:16:08.967Z,19.87
2019-04-05T06:18:12.885Z,23.27
2019-04-05T06:20:18.059Z,21.13
2019-04-05T06:22:22.021Z,22.07
2019-04-05T06:24:26.036Z,18.37
2019-04-05T06:26:29.949Z,23.27
2019-04-05T06:28:33.970Z,22.07
2019-04-05T06:30:37.870Z,19.83
2019-04-05T06:32:41.840Z,18.17
2019-04-05T06:34:45.712Z,22.03
2019-04-05T06:36:51.224Z,17.10
2019-04-05T06:38:55.317Z,21.10
2019-04-05T06:40:59.212Z,22.93
2019-04-05T06:43:03.173Z,21.57
2019-04-05T06:45:07.160Z,19.93
2019-04-05T06:47:11.041Z,20.47
2019-04-05T06:49:14.977Z,19.17
2019-04-05T06:51:18.857Z,20.30
2019-04-05T06:53:22.788Z,16.90
2019-04-05T06:55:27.515Z,21.03
2019-04-05T06:57:31.588Z,20.27
2019-04-05T06:59:35.516Z,18.33
2019-04-05T07:01:39.416Z,18.73
2019-04-05T07:03:43.331Z,19.60
2019-04-05T07:05:47.344Z,19.70
2019-04-05T07:07:51.269Z,20.73
2019-04-05T07:09:55.141Z,20.17
2019-04-05T07:11:59.069Z,20.27
2019-04-05T07:14:03.054Z,21.53
2019-04-05T07:16:06.935Z,22.30
2019-04-05T07:18:10.860Z,18.53
2019-04-05T07:20:15.088Z,23.13
2019-04-05T07:22:32.186Z,19.53
2019-04-05T07:24:24.530Z,20.57
2019-04-05T07:26:28.483Z,23.03
2019-04-05T07:28:32.371Z,19.50
2019-04-05T07:30:36.385Z,23.93
2019-04-05T07:32:40.325Z,19.67
2019-04-05T07:34:45.197Z,20.97
2019-04-05T07:36:49.132Z,21.93
2019-04-05T07:38:53.058Z,19.23
2019-04-05T07:40:57.094Z,19.60
2019-04-05T07:43:00.999Z,23.17
2019-04-05T07:45:06.694Z,22.87
2019-04-05T07:47:10.896Z,22.63
2019-04-05T07:49:14.872Z,20.53
2019-04-05T07:51:18.803Z,22.83
2019-04-05T07:53:22.823Z,19.93
2019-04-05T07:55:27.081Z,19.43
2019-04-05T07:57:31.174Z,21.53
2019-04-05T07:59:35.088Z,19.73
2019-04-05T08:01:42.375Z,22.63
2019-04-05T08:03:46.924Z,19.93
2019-04-05T08:05:52.144Z,21.20
2019-04-05T08:07:56.288Z,20.23
2019-04-05T08:10:02.888Z,24.70
2019-04-05T08:12:07.376Z,23.90
2019-04-05T08:14:12.243Z,18.17
2019-04-05T08:16:16.219Z,19.27
2019-04-05T08:18:20.136Z,24.20
2019-04-05T08:20:25.399Z,23.97
2019-04-05T08:22:32.188Z,19.33
2019-04-05T08:24:35.118Z,21.60
2019-04-05T08:26:39.009Z,22.70
2019-04-05T08:28:42.905Z,25.10
2019-04-05T08:30:46.840Z,25.20
2019-04-05T08:32:50.737Z,21.50
2019-04-05T08:34:54.677Z,24.13
2019-04-05T08:36:58.625Z,24.97
2019-04-05T08:39:02.539Z,23.20
2019-04-05T08:41:06.458Z,27.03
2019-04-05T08:43:10.346Z,25.53
2019-04-05T08:45:14.706Z,26.67
2019-04-05T08:47:18.593Z,26.83
2019-04-05T08:49:22.536Z,26.00
2019-04-05T08:51:26.412Z,27.00
2019-04-05T08:53:30.419Z,28.47
2019-04-05T08:55:34.334Z,26.17
2019-04-05T08:57:38.200Z,27.43
2019-04-05T08:59:42.130Z,28.13
2019-04-05T09:01:46.331Z,24.93
2019-04-05T09:03:50.225Z,26.50
2019-04-05T09:05:54.174Z,23.60
2019-04-05T09:07:58.050Z,27.27
2019-04-05T09:10:01.949Z,29.13
2019-04-05T09:12:05.859Z,26.13
2019-04-05T09:14:09.734Z,30.13
2019-04-05T09:16:13.679Z,26.27
2019-04-05T09:18:17.573Z,27.73
2019-04-05T09:20:21.902Z,32.60
2019-04-05T09:22:25.847Z,33.30
2019-04-05T09:24:29.721Z,30.53
2019-04-05T09:26:33.653Z,30.77
2019-04-05T09:28:37.559Z,32.30
2019-04-05T09:30:41.462Z,31.77
2019-04-05T09:32:45.396Z,27.03
2019-04-05T09:34:49.312Z,27.30
2019-04-05T09:36:53.192Z,24.83
2019-04-05T09:38:57.138Z,25.80
2019-04-05T09:41:01.030Z,24.93
2019-04-05T09:43:05.048Z,24.73
2019-04-05T09:45:08.941Z,26.27
2019-04-05T09:47:12.813Z,26.63
2019-04-05T09:49:16.862Z,24.47
2019-04-05T09:51:20.757Z,23.43
2019-04-05T09:53:24.661Z,25.07
2019-04-05T09:55:28.581Z,20.57
2019-04-05T09:57:32.457Z,18.77
2019-04-05T09:59:36.404Z,20.23
2019-04-05T10:01:40.306Z,18.90
2019-04-05T10:03:44.189Z,19.40
2019-04-05T10:05:48.117Z,21.20
2019-04-05T10:07:55.290Z,22.23
2019-04-05T10:09:57.590Z,20.47
2019-04-05T10:12:01.469Z,17.17
2019-04-05T10:14:05.396Z,19.20
2019-04-05T10:16:09.335Z,22.33
2019-04-05T10:18:13.205Z,19.00
2019-04-05T10:20:17.162Z,18.97
2019-04-05T10:22:21.060Z,18.40
2019-04-05T10:24:24.959Z,21.67
2019-04-05T10:26:28.872Z,16.93
2019-04-05T10:28:32.758Z,19.63
2019-04-05T10:30:36.709Z,18.27
2019-04-05T10:32:40.600Z,16.27
2019-04-05T10:34:44.481Z,21.80
2019-04-05T10:36:48.451Z,17.07
2019-04-05T10:38:52.358Z,20.80
2019-04-05T10:40:56.275Z,19.63
2019-04-05T10:43:00.187Z,20.37
2019-04-05T10:45:05.825Z,23.03
2019-04-05T10:47:09.800Z,18.00
2019-04-05T10:49:15.155Z,19.93
2019-04-05T10:51:19.288Z,18.27
2019-04-05T10:53:23.331Z,17.93
2019-04-05T10:55:27.220Z,14.03
2019-04-05T10:57:31.089Z,15.70
2019-04-05T10:59:35.013Z,18.67
2019-04-05T11:01:38.913Z,18.53
2019-04-05T11:03:42.838Z,14.87
2019-04-05T11:05:49.742Z,16.67
2019-04-05T11:07:53.577Z,17.50
2019-04-05T11:09:57.550Z,16.53
2019-04-05T11:12:01.454Z,13.73
2019-04-05T11:14:13.567Z,14.87
2019-04-05T11:16:11.022Z,13.03
2019-04-05T11:18:14.898Z,17.27
2019-04-05T11:20:22.447Z,15.80
2019-04-05T11:22:24.782Z,16.20
2019-04-05T11:24:28.695Z,14.17
2019-04-05T11:26:32.693Z,18.37
2019-04-05T11:28:36.602Z,18.27
2019-04-05T11:30:42.529Z,14.83
2019-04-05T11:32:47.117Z,16.23
2019-04-05T11:34:50.985Z,15.47
2019-04-05T11:36:55.408Z,15.93
2019-04-05T11:38:59.385Z,14.20
2019-04-05T11:41:04.225Z,13.10
2019-04-05T11:43:08.144Z,13.03
2019-04-05T11:45:12.133Z,12.90
2019-04-05T11:47:19.030Z,16.57
2019-04-05T11:49:22.086Z,12.00
2019-04-05T11:51:25.976Z,14.60
2019-04-05T11:53:30.020Z,14.03
2019-04-05T11:55:33.896Z,14.43
2019-04-05T11:57:41.028Z,11.53
2019-04-05T11:59:43.342Z,11.93
2019-04-05T12:01:51.765Z,10.53
2019-04-05T12:03:55.683Z,11.00
2019-04-05T12:05:59.566Z,12.67
2019-04-05T12:08:03.469Z,12.27
2019-04-05T12:10:09.449Z,13.30
2019-04-05T12:12:13.394Z,12.53
2019-04-05T12:14:29.704Z,12.30
2019-04-05T12:16:22.972Z,12.37
2019-04-05T12:18:26.980Z,12.63
2019-04-05T12:20:33.263Z,11.70
2019-04-05T12:22:36.425Z,13.17
2019-04-05T12:24:40.341Z,13.90
2019-04-05T12:26:44.267Z,13.57
2019-04-05T12:28:48.144Z,13.50
2019-04-05T12:30:52.068Z,15.37
2019-04-05T12:32:55.978Z,14.23
2019-04-05T12:34:59.988Z,13.90
2019-04-05T12:37:03.898Z,15.77
2019-04-05T12:39:08.477Z,14.83
2019-04-05T12:41:12.511Z,16.03
2019-04-05T12:43:16.389Z,15.80
2019-04-05T12:45:20.367Z,14.97
2019-04-05T12:47:24.260Z,15.97
2019-04-05T12:49:28.143Z,13.33
2019-04-05T12:51:32.352Z,11.60
2019-04-05T12:53:36.224Z,16.23
2019-04-05T12:55:40.141Z,16.27
2019-04-05T12:57:44.047Z,13.20
2019-04-05T12:59:48.206Z,12.77
2019-04-05T13:01:53.558Z,15.37
2019-04-05T13:03:58.791Z,17.73
2019-04-05T13:06:02.830Z,17.20
2019-04-05T13:08:06.800Z,13.50
2019-04-05T13:10:10.778Z,16.23
2019-04-05T13:12:14.660Z,16.27
2019-04-05T13:14:18.613Z,16.87
2019-04-05T13:16:22.514Z,13.47
2019-04-05T13:18:26.404Z,12.53
2019-04-05T13:20:31.963Z,13.47
2019-04-05T13:22:35.862Z,12.90
2019-04-05T13:24:40.401Z,14.60
2019-04-05T13:26:44.638Z,12.53
2019-04-05T13:28:49.168Z,13.30
2019-04-05T13:30:55.320Z,13.37
2019-04-05T13:32:58.677Z,13.50
2019-04-05T13:35:02.582Z,17.53
2019-04-05T13:37:19.267Z,13.23
2019-04-05T13:39:12.136Z,15.00
2019-04-05T13:41:18.926Z,13.70
2019-04-05T13:43:21.633Z,13.33
2019-04-05T13:45:25.512Z,14.63
2019-04-05T13:47:29.465Z,16.00
2019-04-05T13:49:33.433Z,10.27
2019-04-05T13:51:37.308Z,18.17
2019-04-05T13:53:41.284Z,16.53
2019-04-05T13:55:47.361Z,17.30
2019-04-05T13:57:50.712Z,19.50
2019-04-05T13:59:54.648Z,13.57
2019-04-05T14:02:05.954Z,13.57
2019-04-05T14:04:04.068Z,19.10
2019-04-05T14:06:10.622Z,16.70
2019-04-05T14:08:13.533Z,16.70
2019-04-05T14:10:17.478Z,14.30
2019-04-05T14:12:21.400Z,13.80
2019-04-05T14:14:28.222Z,16.43
2019-04-05T14:16:30.847Z,18.17
2019-04-05T14:18:34.799Z,13.20
2019-04-05T14:20:38.801Z,15.97
2019-04-05T14:22:42.689Z,18.13
2019-04-05T14:24:46.581Z,17.97
2019-04-05T14:26:50.517Z,16.00
2019-04-05T14:28:54.401Z,14.57
2019-04-05T14:30:58.320Z,15.10
2019-04-05T14:33:02.245Z,15.57
2019-04-05T14:35:08.351Z,21.63
2019-04-05T14:37:12.269Z,15.73
2019-04-05T14:39:16.287Z,18.57
2019-04-05T14:41:20.219Z,17.20
2019-04-05T14:43:24.189Z,19.90
2019-04-05T14:45:28.104Z,21.40
2019-04-05T14:47:31.986Z,12.73
2019-04-05T14:49:35.887Z,16.40
2019-04-05T14:51:52.238Z,15.10
2019-04-05T14:53:45.485Z,16.53
2019-04-05T14:55:49.352Z,20.13
2019-04-05T14:57:53.296Z,15.90
2019-04-05T14:59:57.182Z,15.93
2019-04-05T15:02:01.590Z,16.90
2019-04-05T15:04:05.567Z,16.43
2019-04-05T15:06:09.445Z,20.30
2019-04-05T15:08:13.356Z,17.47
2019-04-05T15:10:17.269Z,17.87
2019-04-05T15:12:21.164Z,16.93
2019-04-05T15:14:25.115Z,15.77
2019-04-05T15:16:29.008Z,20.33
2019-04-05T15:18:32.907Z,16.80
2019-04-05T15:20:36.828Z,24.83
2019-04-05T15:22:42.225Z,18.13
2019-04-05T15:24:47.092Z,18.00
2019-04-05T15:26:52.160Z,20.83
2019-04-05T15:28:56.190Z,15.87
2019-04-05T15:31:00.077Z,21.70
2019-04-05T15:33:04.405Z,17.27
2019-04-05T15:35:08.998Z,14.33
2019-04-05T15:37:15.766Z,18.63
2019-04-05T15:39:18.491Z,18.97
2019-04-05T15:41:22.365Z,24.13
2019-04-05T15:43:26.264Z,19.77
2019-04-05T15:45:30.210Z,20.53
2019-04-05T15:47:34.125Z,18.33
2019-04-05T15:49:38.080Z,18.90
2019-04-05T15:51:41.987Z,25.67
2019-04-05T15:53:45.899Z,22.40
2019-04-05T15:55:49.774Z,16.40
2019-04-05T15:57:53.667Z,18.67
2019-04-05T15:59:57.596Z,19.37
2019-04-05T16:02:03.785Z,17.87
2019-04-05T16:04:07.044Z,23.00
2019-04-05T16:06:10.966Z,18.97
2019-04-05T16:08:17.842Z,18.63
2019-04-05T16:10:21.797Z,23.10
2019-04-05T16:12:25.708Z,21.17
2019-04-05T16:14:29.585Z,17.87
2019-04-05T16:16:33.510Z,26.23
2019-04-05T16:18:37.422Z,25.00
2019-04-05T16:20:41.322Z,22.30
2019-04-05T16:22:45.253Z,21.27
2019-04-05T16:24:49.134Z,23.17
2019-04-05T16:26:53.183Z,23.13
2019-04-05T16:28:57.088Z,21.50
2019-04-05T16:31:01.001Z,23.50
2019-04-05T16:33:04.924Z,21.20
2019-04-05T16:35:08.832Z,24.50
2019-04-05T16:37:12.827Z,21.93
2019-04-05T16:39:18.356Z,21.97
2019-04-05T16:41:22.274Z,22.37
2019-04-05T16:43:26.174Z,22.93
2019-04-05T16:45:30.097Z,21.20
2019-04-05T16:47:34.001Z,19.90
2019-04-05T16:49:37.914Z,16.23
2019-04-05T16:51:41.808Z,20.13
2019-04-05T16:54:01.888Z,22.10
2019-04-05T16:56:05.842Z,17.30
2019-04-05T16:58:09.829Z,15.07
2019-04-05T17:00:14.668Z,22.37
2019-04-05T17:02:18.572Z,18.57
2019-04-05T17:04:22.492Z,16.67
2019-04-05T17:06:26.412Z,20.63
2019-04-05T17:08:30.277Z,17.07
2019-04-05T17:10:34.396Z,23.70
2019-04-05T17:12:38.301Z,25.93
2019-04-05T17:14:42.172Z,17.80
2019-04-05T17:16:46.098Z,19.27
2019-04-05T17:18:49.984Z,22.03
2019-04-05T17:20:53.917Z,25.00
2019-04-05T17:22:58.822Z,20.37
2019-04-05T17:25:03.048Z,24.13
2019-04-05T17:27:06.939Z,17.97
2019-04-05T17:29:10.816Z,19.10
2019-04-05T17:31:14.741Z,17.47
2019-04-05T17:33:18.651Z,18.37
2019-04-05T17:35:22.537Z,19.77
2019-04-05T17:37:26.868Z,16.37
2019-04-05T17:39:30.800Z,19.23
2019-04-05T17:41:34.703Z,18.83
2019-04-05T17:43:38.651Z,20.83
2019-04-05T17:45:42.532Z,20.13
2019-04-05T17:47:46.459Z,19.57
2019-04-05T17:49:50.348Z,23.17
2019-04-05T17:51:54.438Z,24.57
2019-04-05T17:53:58.344Z,23.10
2019-04-05T17:56:02.726Z,19.77
2019-04-05T17:58:07.196Z,21.57
2019-04-05T18:00:12.863Z,21.70
2019-04-05T18:02:16.784Z,20.80
2019-04-05T18:04:20.705Z,20.23
2019-04-05T18:06:24.604Z,22.23
2019-04-05T18:08:28.528Z,19.80
2019-04-05T18:10:32.432Z,25.43
2019-04-05T18:12:36.366Z,24.13
2019-04-05T18:14:40.264Z,18.77
2019-04-05T18:16:44.189Z,25.00
2019-04-05T18:18:48.082Z,16.93
2019-04-05T18:20:52.012Z,21.70
2019-04-05T18:22:55.956Z,20.90
2019-04-05T18:24:59.850Z,22.60
2019-04-05T18:27:03.788Z,22.70
2019-04-05T18:29:07.686Z,22.53
2019-04-05T18:31:11.576Z,18.80
2019-04-05T18:33:15.495Z,23.83
2019-04-05T18:35:19.404Z,23.73
2019-04-05T18:37:23.372Z,19.67
2019-04-05T18:39:27.280Z,16.97
2019-04-05T18:41:31.168Z,27.70
2019-04-05T18:43:35.141Z,23.17
2019-04-05T18:45:39.264Z,18.87
2019-04-05T18:47:43.229Z,30.20
2019-04-05T18:49:47.182Z,23.20
2019-04-05T18:51:51.104Z,23.20
2019-04-05T18:53:55.070Z,22.87
2019-04-05T18:55:58.967Z,24.47
2019-04-05T18:58:02.857Z,22.67
2019-04-05T19:00:08.010Z,22.60
2019-04-05T19:02:11.927Z,28.03
2019-04-05T19:04:15.804Z,26.13
2019-04-05T19:06:19.734Z,27.27
2019-04-05T19:08:23.626Z,31.30
2019-04-05T19:10:36.799Z,24.87
2019-04-05T19:12:33.136Z,20.57
2019-04-05T19:14:37.020Z,25.97
2019-04-05T19:16:40.940Z,23.70
2019-04-05T19:18:44.873Z,23.93
2019-04-05T19:20:48.773Z,19.97
2019-04-05T19:22:52.700Z,28.93
2019-04-05T19:24:56.650Z,23.60
2019-04-05T19:27:00.527Z,23.37
2019-04-05T19:29:04.930Z,18.63
2019-04-05T19:49:59.032Z,24.60
2019-04-05T19:52:02.916Z,31.17
2019-04-05T19:54:06.866Z,27.47
2019-04-05T19:56:10.756Z,31.70
2019-04-05T19:58:14.697Z,24.90
2019-04-05T20:00:19.062Z,20.67
2019-04-05T20:02:22.961Z,18.53
2019-04-05T20:04:26.869Z,23.53
2019-04-05T20:06:30.789Z,22.50
2019-04-05T20:08:34.669Z,21.67
2019-04-05T20:10:38.618Z,26.40
2019-04-05T20:12:42.502Z,26.30
2019-04-05T20:14:46.392Z,24.83
2019-04-05T20:16:50.317Z,22.13
2019-04-05T20:18:54.191Z,21.43
2019-04-05T20:20:58.120Z,24.47
2019-04-05T20:23:02.011Z,21.93
2019-04-05T20:25:07.212Z,29.15
2019-04-05T20:27:11.150Z,33.23
2019-04-05T20:29:15.065Z,26.97
2019-04-05T20:31:18.993Z,23.97
2019-04-05T20:33:22.880Z,31.53
2019-04-05T20:35:26.760Z,25.27
2019-04-05T20:37:30.720Z,31.30
2019-04-05T20:39:34.588Z,26.87
2019-04-05T20:41:38.497Z,27.67
2019-04-05T20:43:42.434Z,26.70
2019-04-05T20:45:46.334Z,25.90
2019-04-05T20:47:50.246Z,30.40
2019-04-05T20:49:54.173Z,35.97
2019-04-05T20:51:58.051Z,25.77
2019-04-05T20:54:01.963Z,29.33
2019-04-05T20:56:05.908Z,25.77
2019-04-05T20:58:09.796Z,29.63
2019-04-05T21:00:14.288Z,28.37
2019-04-05T21:02:18.181Z,26.17
2019-04-05T21:04:22.095Z,22.23
2019-04-05T21:06:26.004Z,25.17
2019-04-05T21:08:29.915Z,25.20
2019-04-05T21:10:34.110Z,25.83
2019-04-05T21:12:38.072Z,27.07
2019-04-05T21:14:41.940Z,28.07
2019-04-05T21:16:45.907Z,28.40
2019-04-05T21:18:49.780Z,28.57
2019-04-05T21:20:53.681Z,28.07
2019-04-05T21:22:57.639Z,25.30
2019-04-05T21:25:01.564Z,28.87
2019-04-05T21:27:05.494Z,28.23
2019-04-05T21:29:09.404Z,29.67
2019-04-05T21:31:13.311Z,30.93
2019-04-05T21:33:17.245Z,27.13
2019-04-05T21:35:21.136Z,26.50
2019-04-05T21:37:25.059Z,23.63
2019-04-05T21:39:28.968Z,25.97
2019-04-05T21:41:32.865Z,24.77
2019-04-05T21:43:36.802Z,21.03
2019-04-05T21:45:40.686Z,23.57
2019-04-05T21:47:44.601Z,23.53
2019-04-05T21:49:48.508Z,20.80
2019-04-05T21:51:52.418Z,24.37
2019-04-05T21:53:56.383Z,25.27
2019-04-05T21:56:00.253Z,26.87
2019-04-05T21:58:04.169Z,35.57
2019-04-05T22:00:31.374Z,26.27
2019-04-05T22:02:35.287Z,28.13
2019-04-05T22:04:39.416Z,23.17
2019-04-05T22:06:43.292Z,28.07
2019-04-05T22:08:47.251Z,25.30
2019-04-05T22:10:51.123Z,21.90
2019-04-05T22:12:55.024Z,24.83
2019-04-05T22:14:58.912Z,25.53
2019-04-05T22:17:02.813Z,22.43
2019-04-05T22:19:06.778Z,23.60
2019-04-05T22:21:10.663Z,33.03
2019-04-05T22:23:14.593Z,26.50
2019-04-05T22:25:18.489Z,24.17
2019-04-05T22:27:22.424Z,25.43
2019-04-05T22:29:26.394Z,22.37
2019-04-05T22:31:30.273Z,18.73
2019-04-05T22:33:34.238Z,22.90
2019-04-05T22:35:38.103Z,24.00
2019-04-05T22:37:42.072Z,26.07
2019-04-05T22:39:45.977Z,23.20
2019-04-05T22:41:49.885Z,25.40
2019-04-05T22:43:53.804Z,21.03
2019-04-05T22:45:57.694Z,21.37
2019-04-05T22:48:01.599Z,25.27
2019-04-05T22:50:07.645Z,25.47
2019-04-05T22:52:11.596Z,30.23
2019-04-05T22:54:15.517Z,22.37
2019-04-05T22:56:19.442Z,28.63
2019-04-05T22:58:23.319Z,27.37
2019-04-05T23:00:27.274Z,27.30
2019-04-05T23:02:31.157Z,22.87
2019-04-05T23:04:35.060Z,27.13
2019-04-05T23:06:39.004Z,22.33
2019-04-05T23:08:42.923Z,30.27
2019-04-05T23:10:46.805Z,24.73
2019-04-05T23:12:50.723Z,24.97
2019-04-05T23:14:54.617Z,19.13
2019-04-05T23:16:58.529Z,21.07
2019-04-05T23:19:02.461Z,18.23
2019-04-05T23:21:06.341Z,20.10
2019-04-05T23:23:10.254Z,25.67
2019-04-05T23:25:21.783Z,19.87
2019-04-05T23:27:19.710Z,14.97
2019-04-05T23:29:23.655Z,19.97
2019-04-05T23:31:27.537Z,21.73
2019-04-05T23:33:31.429Z,24.20
2019-04-05T23:35:35.365Z,21.10
2019-04-05T23:37:39.257Z,21.67
2019-04-05T23:39:43.188Z,18.97
2019-04-05T23:41:47.228Z,17.93
2019-04-05T23:43:51.121Z,20.20
2019-04-05T23:45:55.013Z,20.77
2019-04-05T23:47:58.980Z,16.50
2019-04-05T23:50:02.870Z,17.83
2019-04-05T23:52:06.797Z,20.03
2019-04-05T23:54:10.692Z,39.30
2019-04-05T23:56:14.617Z,13.30
2019-04-05T23:58:18.567Z,19.47
